createdAt,value
2022-08-17T00:01:52.171Z,5.68
2022-08-17T00:04:21.267Z,6.30
2022-08-17T00:06:49.903Z,8.47
2022-08-17T00:09:18.904Z,12.90
2022-08-17T00:12:34.831Z,8.23
2022-08-17T00:14:35.667Z,8.63
2022-08-17T00:17:02.376Z,9.63
2022-08-17T00:19:29.454Z,10.03
2022-08-17T00:22:31.938Z,7.80
2022-08-17T00:24:47.079Z,6.13
2022-08-17T00:27:13.725Z,6.65
2022-08-17T00:29:40.519Z,9.02
2022-08-17T00:33:11.985Z,5.27
2022-08-17T00:34:54.382Z,9.50
2022-08-17T00:37:22.813Z,6.65
2022-08-17T00:39:51.611Z,6.13
2022-08-17T00:42:19.599Z,5.47
2022-08-17T00:44:50.583Z,5.33
2022-08-17T00:47:24.657Z,7.70
2022-08-17T00:49:51.552Z,7.35
2022-08-17T00:52:22.429Z,7.35
2022-08-17T00:54:54.695Z,6.18
2022-08-17T00:57:24.913Z,5.10
2022-08-17T01:00:02.520Z,9.18
2022-08-17T01:02:35.010Z,5.60
2022-08-17T01:05:17.169Z,5.97
2022-08-17T01:07:47.721Z,7.07
2022-08-17T01:10:59.224Z,10.07
2022-08-17T01:13:08.012Z,5.22
2022-08-17T01:15:40.027Z,7.05
2022-08-17T01:18:09.913Z,7.72
2022-08-17T01:20:48.604Z,7.90
2022-08-17T01:23:20.770Z,7.47
2022-08-17T01:25:49.867Z,5.53
2022-08-17T01:28:33.330Z,7.57
2022-08-17T01:31:07.009Z,4.60
2022-08-17T01:33:34.397Z,6.40
2022-08-17T01:36:00.994Z,4.27
2022-08-17T01:38:29.024Z,6.75
2022-08-17T01:41:00.447Z,5.55
2022-08-17T01:43:31.199Z,5.82
2022-08-17T01:46:02.728Z,5.22
2022-08-17T01:48:36.489Z,7.87
2022-08-17T01:51:03.448Z,5.63
2022-08-17T01:53:35.373Z,4.78
2022-08-17T01:56:07.839Z,5.93
2022-08-17T01:58:36.001Z,6.60
2022-08-17T02:01:04.599Z,5.20
2022-08-17T02:03:35.499Z,6.10
2022-08-17T02:06:05.787Z,8.23
2022-08-17T02:09:01.483Z,6.55
2022-08-17T02:11:31.594Z,5.60
2022-08-17T02:14:03.328Z,6.80
2022-08-17T02:16:37.652Z,4.30
2022-08-17T02:19:06.603Z,4.57
2022-08-17T02:21:33.324Z,4.95
2022-08-17T02:24:01.768Z,7.22
2022-08-17T02:26:28.525Z,6.73
2022-08-17T02:28:55.385Z,6.60
2022-08-17T02:31:22.070Z,6.18
2022-08-17T02:34:04.005Z,4.95
2022-08-17T02:36:32.220Z,6.97
2022-08-17T02:39:01.681Z,5.33
2022-08-17T02:41:28.431Z,4.47
2022-08-17T02:43:55.040Z,4.45
2022-08-17T02:46:21.693Z,6.03
2022-08-17T02:48:48.493Z,9.13
2022-08-17T02:51:15.169Z,8.10
2022-08-17T02:53:42.281Z,6.25
2022-08-17T02:56:10.560Z,5.30
2022-08-17T02:58:38.546Z,7.55
2022-08-17T03:01:06.427Z,5.45
2022-08-17T03:03:34.650Z,6.70
2022-08-17T03:06:01.590Z,6.70
2022-08-17T03:08:28.895Z,6.70
2022-08-17T03:10:55.732Z,4.38
2022-08-17T03:13:23.989Z,5.30
2022-08-17T03:15:50.746Z,4.93
2022-08-17T03:18:25.051Z,4.50
2022-08-17T03:20:54.542Z,7.18
2022-08-17T03:23:24.396Z,6.22
2022-08-17T03:25:53.249Z,5.88
2022-08-17T03:28:24.373Z,4.53
2022-08-17T03:30:51.744Z,4.13
2022-08-17T03:33:19.402Z,6.45
2022-08-17T03:35:46.912Z,6.53
2022-08-17T03:38:15.181Z,4.90
2022-08-17T03:40:57.160Z,4.43
2022-08-17T03:43:30.432Z,4.53
2022-08-17T03:45:57.735Z,6.28
2022-08-17T03:48:25.223Z,5.40
2022-08-17T03:50:52.501Z,5.57
2022-08-17T03:53:19.239Z,4.37
2022-08-17T03:55:45.937Z,4.13
2022-08-17T03:58:12.599Z,3.88
2022-08-17T04:00:40.679Z,6.20
2022-08-17T04:03:09.085Z,6.43
2022-08-17T04:05:35.827Z,3.87
2022-08-17T04:08:02.740Z,4.43
2022-08-17T04:10:34.013Z,5.97
2022-08-17T04:13:08.132Z,4.10
2022-08-17T04:15:34.738Z,5.15
2022-08-17T04:18:02.783Z,6.10
2022-08-17T04:20:29.587Z,6.05
2022-08-17T04:22:58.806Z,7.43
2022-08-17T04:25:26.343Z,5.53
2022-08-17T04:27:54.598Z,3.78
2022-08-17T04:30:23.288Z,5.80
2022-08-17T04:33:05.050Z,4.28
2022-08-17T04:35:37.364Z,4.35
2022-08-17T04:38:05.217Z,3.42
2022-08-17T04:40:32.625Z,3.45
2022-08-17T04:43:04.370Z,4.53
2022-08-17T04:45:32.413Z,8.10
2022-08-17T04:48:00.504Z,4.50
2022-08-17T04:50:27.210Z,4.90
2022-08-17T04:53:05.821Z,6.43
2022-08-17T04:55:53.420Z,5.83
2022-08-17T04:58:23.277Z,3.65
2022-08-17T05:00:49.959Z,7.15
2022-08-17T05:03:16.575Z,7.55
2022-08-17T05:05:45.290Z,7.10
2022-08-17T05:08:17.607Z,8.23
2022-08-17T05:10:45.494Z,3.47
2022-08-17T05:13:14.433Z,5.07
2022-08-17T05:15:44.826Z,4.75
2022-08-17T05:18:13.084Z,10.60
2022-08-17T05:20:40.698Z,4.03
2022-08-17T05:23:09.388Z,6.38
2022-08-17T05:25:42.287Z,5.03
2022-08-17T05:28:15.038Z,8.00
2022-08-17T05:30:44.008Z,7.10
2022-08-17T05:33:13.023Z,6.40
2022-08-17T05:35:46.040Z,3.65
2022-08-17T05:38:13.216Z,4.18
2022-08-17T05:40:43.708Z,8.20
2022-08-17T05:43:12.573Z,7.20
2022-08-17T05:45:54.351Z,8.57
2022-08-17T05:48:35.495Z,9.82
2022-08-17T05:51:28.029Z,5.63
2022-08-17T05:54:15.757Z,8.73
2022-08-17T05:57:08.500Z,5.22
2022-08-17T05:59:46.153Z,9.23
2022-08-17T06:02:38.726Z,9.13
2022-08-17T06:05:32.140Z,7.18
2022-08-17T06:08:06.774Z,7.38
2022-08-17T06:10:46.924Z,6.72
2022-08-17T06:13:40.820Z,6.20
2022-08-17T06:16:31.173Z,5.30
2022-08-17T06:19:06.680Z,7.03
2022-08-17T06:21:36.005Z,5.38
2022-08-17T06:24:07.065Z,9.00
2022-08-17T06:26:43.308Z,8.20
2022-08-17T06:29:20.025Z,5.72
2022-08-17T06:31:47.068Z,4.80
2022-08-17T06:34:14.155Z,8.25
2022-08-17T06:37:05.307Z,9.57
2022-08-17T06:39:43.179Z,4.70
2022-08-17T06:42:54.943Z,8.07
2022-08-17T06:45:15.800Z,7.10
2022-08-17T06:47:52.940Z,3.63
2022-08-17T06:50:29.564Z,7.80
2022-08-17T06:52:59.552Z,8.17
2022-08-17T06:55:34.533Z,3.60
2022-08-17T06:58:15.923Z,5.07
2022-08-17T07:00:47.567Z,7.68
2022-08-17T07:03:24.056Z,5.25
2022-08-17T07:05:54.740Z,8.13
2022-08-17T07:08:32.028Z,7.10
2022-08-17T07:11:06.159Z,6.93
2022-08-17T07:13:41.959Z,7.00
2022-08-17T07:16:19.947Z,7.40
2022-08-17T07:18:49.791Z,4.60
2022-08-17T07:21:34.509Z,4.95
2022-08-17T07:24:29.390Z,4.97
2022-08-17T07:27:11.560Z,9.05
2022-08-17T07:29:42.860Z,7.95
2022-08-17T07:32:13.927Z,5.73
2022-08-17T07:35:17.659Z,8.70
2022-08-17T07:37:50.221Z,11.48
2022-08-17T07:40:24.304Z,11.88
2022-08-17T07:43:22.375Z,10.02
2022-08-17T07:46:03.942Z,10.57
2022-08-17T07:48:36.339Z,10.98
2022-08-17T07:51:15.171Z,8.25
2022-08-17T07:53:41.838Z,7.55
2022-08-17T07:56:08.699Z,9.18
2022-08-17T07:58:36.680Z,10.50
2022-08-17T08:01:07.652Z,8.27
2022-08-17T08:03:41.289Z,8.27
2022-08-17T08:06:19.891Z,7.95
2022-08-17T08:08:55.844Z,10.65
2022-08-17T08:11:31.214Z,8.40
2022-08-17T08:14:20.387Z,9.00
2022-08-17T08:16:57.904Z,10.00
2022-08-17T08:19:28.348Z,9.18
2022-08-17T08:22:05.398Z,12.10
2022-08-17T08:24:57.328Z,7.93
2022-08-17T08:27:45.762Z,10.60
2022-08-17T08:30:15.957Z,9.23
2022-08-17T08:33:01.482Z,9.45
2022-08-17T08:35:32.989Z,9.73
2022-08-17T08:38:08.762Z,11.10
2022-08-17T08:41:08.154Z,7.63
2022-08-17T08:43:52.796Z,10.73
2022-08-17T08:46:43.201Z,9.50
2022-08-17T08:50:01.867Z,7.72
2022-08-17T08:52:43.711Z,10.50
2022-08-17T08:55:18.330Z,12.80
2022-08-17T08:57:53.959Z,8.13
2022-08-17T09:00:23.318Z,7.65
2022-08-17T09:03:17.302Z,12.82
2022-08-17T09:05:59.317Z,7.70
2022-08-17T09:08:37.094Z,11.00
2022-08-17T09:11:06.325Z,10.43
2022-08-17T09:13:44.342Z,13.25
2022-08-17T09:16:17.925Z,11.25
2022-08-17T09:19:00.068Z,8.90
2022-08-17T09:21:37.383Z,14.23
2022-08-17T09:24:13.956Z,12.65
2022-08-17T09:26:53.298Z,10.48
2022-08-17T09:29:22.454Z,9.77
2022-08-17T09:31:55.347Z,10.63
2022-08-17T09:34:33.150Z,9.77
2022-08-17T09:37:11.021Z,17.20
2022-08-17T09:39:47.034Z,11.38
2022-08-17T09:42:21.349Z,13.05
2022-08-17T09:44:53.888Z,9.57
2022-08-17T09:47:29.796Z,12.85
2022-08-17T09:50:02.894Z,16.25
2022-08-17T09:52:31.156Z,12.90
2022-08-17T09:55:00.397Z,14.15
2022-08-17T09:57:42.116Z,11.30
2022-08-17T10:00:20.609Z,11.32
2022-08-17T10:03:20.164Z,13.38
2022-08-17T10:05:57.221Z,14.25
2022-08-17T10:08:36.630Z,9.60
2022-08-17T10:11:33.500Z,11.30
2022-08-17T10:14:36.742Z,10.20
2022-08-17T10:17:07.838Z,12.93
2022-08-17T10:19:39.525Z,16.40
2022-08-17T10:22:34.527Z,11.63
2022-08-17T10:25:22.331Z,13.33
2022-08-17T10:27:59.797Z,10.98
2022-08-17T10:30:32.712Z,11.10
2022-08-17T10:33:04.553Z,12.75
2022-08-17T10:35:41.410Z,9.40
2022-08-17T10:38:30.381Z,13.27
2022-08-17T10:41:04.527Z,11.82
2022-08-17T10:43:43.732Z,9.43
2022-08-17T10:46:46.337Z,16.45
2022-08-17T10:49:24.547Z,9.77
2022-08-17T10:51:52.985Z,21.30
2022-08-17T10:54:40.749Z,18.00
2022-08-17T10:57:40.226Z,13.30
2022-08-17T11:01:05.024Z,14.45
2022-08-17T11:03:32.004Z,14.82
2022-08-17T11:06:15.372Z,14.03
2022-08-17T11:09:07.348Z,16.23
2022-08-17T11:11:50.189Z,15.27
2022-08-17T11:14:28.517Z,19.27
2022-08-17T11:17:14.824Z,15.77
2022-08-17T11:20:18.205Z,19.33
2022-08-17T11:23:05.432Z,17.17
2022-08-17T11:25:36.261Z,17.42
2022-08-17T11:28:14.895Z,14.90
2022-08-17T11:30:49.062Z,17.13
2022-08-17T11:33:56.854Z,17.20
2022-08-17T11:36:40.248Z,12.63
2022-08-17T11:39:28.692Z,18.17
2022-08-17T11:42:08.731Z,16.08
2022-08-17T11:44:50.537Z,13.95
2022-08-17T11:47:25.460Z,16.03
2022-08-17T11:50:07.940Z,17.67
2022-08-17T11:52:41.204Z,15.23
2022-08-17T11:55:35.735Z,18.95
2022-08-17T11:58:25.696Z,19.88
2022-08-17T12:00:55.695Z,18.60
2022-08-17T12:03:53.808Z,23.75
2022-08-17T12:06:31.663Z,20.10
2022-08-17T12:09:06.086Z,18.95
2022-08-17T12:12:04.645Z,18.98
2022-08-17T12:14:51.702Z,24.70
2022-08-17T12:17:40.637Z,19.15
2022-08-17T12:20:14.661Z,20.17
2022-08-17T12:22:49.807Z,20.55
2022-08-17T12:25:22.396Z,19.15
2022-08-17T12:28:06.201Z,20.33
2022-08-17T12:30:35.857Z,17.38
2022-08-17T12:33:11.842Z,20.10
2022-08-17T12:35:38.501Z,24.30
2022-08-17T12:38:07.431Z,18.92
2022-08-17T12:40:55.505Z,20.00
2022-08-17T12:43:27.455Z,22.08
2022-08-17T12:45:57.529Z,20.70
2022-08-17T12:48:27.551Z,19.65
2022-08-17T12:51:01.595Z,21.50
2022-08-17T12:53:32.225Z,19.53
2022-08-17T12:56:00.346Z,23.52
2022-08-17T12:58:33.921Z,23.58
2022-08-17T13:01:03.724Z,20.45
2022-08-17T13:03:38.550Z,22.63
2022-08-17T13:06:07.643Z,24.80
2022-08-17T13:08:37.675Z,23.23
2022-08-17T13:11:07.142Z,26.52
2022-08-17T13:13:36.455Z,21.25
2022-08-17T13:16:05.964Z,22.45
2022-08-17T13:18:40.692Z,26.73
2022-08-17T13:21:16.680Z,29.80
2022-08-17T13:23:57.436Z,24.05
2022-08-17T13:26:29.068Z,23.55
2022-08-17T13:28:57.691Z,23.10
2022-08-17T13:31:42.872Z,24.77
2022-08-17T13:34:33.330Z,25.40
2022-08-17T13:37:29.697Z,23.08
2022-08-17T13:40:00.372Z,24.67
2022-08-17T13:42:52.759Z,28.98
2022-08-17T13:45:45.481Z,24.77
2022-08-17T13:48:23.356Z,22.90
2022-08-17T13:51:12.235Z,22.92
2022-08-17T13:53:56.695Z,21.17
2022-08-17T13:56:50.455Z,23.00
2022-08-17T13:59:52.651Z,22.90
2022-08-17T14:02:17.306Z,26.40
2022-08-17T14:04:46.772Z,25.75
2022-08-17T14:07:32.025Z,22.75
2022-08-17T14:10:04.677Z,26.63
2022-08-17T14:12:35.397Z,26.13
2022-08-17T14:15:02.463Z,24.92
2022-08-17T14:17:30.097Z,32.85
2022-08-17T14:19:58.954Z,27.55
2022-08-17T14:22:33.070Z,27.33
2022-08-17T14:25:04.680Z,26.07
2022-08-17T14:27:41.876Z,31.55
2022-08-17T14:30:21.962Z,32.35
2022-08-17T14:32:49.880Z,27.58
2022-08-17T14:35:17.577Z,30.55
2022-08-17T14:37:44.788Z,30.67
2022-08-17T14:40:13.567Z,33.72
2022-08-17T14:42:43.854Z,32.63
2022-08-17T14:45:29.830Z,31.05
2022-08-17T14:47:59.300Z,29.98
2022-08-17T14:50:25.930Z,37.80
2022-08-17T14:52:53.163Z,27.73
2022-08-17T14:55:35.992Z,32.08
2022-08-17T14:58:07.847Z,31.83
2022-08-17T15:00:39.942Z,28.95
2022-08-17T15:03:06.664Z,27.77
2022-08-17T15:05:36.246Z,30.13
2022-08-17T15:08:04.010Z,29.83
2022-08-17T15:10:31.116Z,31.38
2022-08-17T15:12:58.242Z,27.45
2022-08-17T15:15:26.433Z,27.10
2022-08-17T15:17:55.189Z,31.02
2022-08-17T15:20:26.444Z,25.55
2022-08-17T15:22:53.594Z,26.25
2022-08-17T15:25:20.426Z,29.02
2022-08-17T15:27:48.437Z,26.93
2022-08-17T15:30:16.123Z,31.02
2022-08-17T15:32:54.464Z,32.97
2022-08-17T15:35:26.930Z,26.23
2022-08-17T15:37:56.892Z,27.98
2022-08-17T15:40:23.757Z,30.30
2022-08-17T15:42:51.184Z,28.75
2022-08-17T15:45:22.969Z,23.58
2022-08-17T15:47:52.058Z,24.67
2022-08-17T15:50:19.007Z,25.20
2022-08-17T15:52:45.767Z,24.27
2022-08-17T15:55:14.630Z,25.55
2022-08-17T15:57:41.955Z,32.17
2022-08-17T16:00:12.075Z,23.92
2022-08-17T16:03:44.959Z,25.38
2022-08-17T16:05:31.720Z,27.37
2022-08-17T16:08:00.257Z,26.88
2022-08-17T16:10:35.271Z,24.15
2022-08-17T16:13:04.083Z,24.05
2022-08-17T16:15:31.376Z,26.08
2022-08-17T16:17:58.404Z,27.40
2022-08-17T16:20:26.073Z,26.20
2022-08-17T16:22:55.458Z,29.23
2022-08-17T16:25:38.409Z,25.35
2022-08-17T16:28:22.001Z,26.05
2022-08-17T16:30:49.292Z,27.57
2022-08-17T16:33:15.967Z,24.83
2022-08-17T16:35:43.991Z,25.35
2022-08-17T16:38:12.002Z,24.58
2022-08-17T16:40:40.946Z,20.15
2022-08-17T16:43:11.798Z,21.13
2022-08-17T16:45:38.520Z,22.75
2022-08-17T16:48:05.399Z,21.98
2022-08-17T16:50:32.646Z,20.63
2022-08-17T16:53:05.252Z,19.85
2022-08-17T16:55:33.946Z,23.77
2022-08-17T16:58:00.895Z,22.40
2022-08-17T17:00:27.528Z,22.63
2022-08-17T17:02:54.361Z,25.42
2022-08-17T17:05:44.590Z,25.50
2022-08-17T17:08:23.228Z,23.60
2022-08-17T17:10:54.445Z,22.73
2022-08-17T17:13:26.617Z,23.15
2022-08-17T17:15:58.581Z,21.83
2022-08-17T17:18:37.591Z,19.17
2022-08-17T17:21:12.973Z,19.30
2022-08-17T17:23:48.351Z,19.45
2022-08-17T17:26:37.897Z,20.45
2022-08-17T17:29:14.056Z,17.85
2022-08-17T17:31:47.161Z,15.38
2022-08-17T17:34:16.063Z,14.00
2022-08-17T17:36:47.333Z,13.13
2022-08-17T17:39:17.826Z,11.32
2022-08-17T17:41:48.963Z,12.65
2022-08-17T17:44:20.016Z,12.93
2022-08-17T17:46:53.134Z,13.80
2022-08-17T17:49:20.396Z,13.13
2022-08-17T17:52:10.816Z,10.25
2022-08-17T17:54:52.689Z,11.15
2022-08-17T17:57:29.728Z,13.98
2022-08-17T18:00:04.496Z,11.90
2022-08-17T18:02:45.278Z,10.48
2022-08-17T18:05:44.442Z,14.57
2022-08-17T18:08:31.956Z,13.35
2022-08-17T18:11:07.974Z,13.40
2022-08-17T18:13:53.237Z,14.67
2022-08-17T18:16:20.493Z,15.57
2022-08-17T18:18:49.058Z,13.07
2022-08-17T18:21:19.964Z,16.38
2022-08-17T18:23:52.531Z,13.27
2022-08-17T18:26:38.670Z,14.23
2022-08-17T18:29:21.388Z,13.40
2022-08-17T18:31:48.238Z,16.05
2022-08-17T18:34:43.684Z,17.60
2022-08-17T18:37:09.243Z,15.73
2022-08-17T18:39:36.093Z,15.60
2022-08-17T18:42:25.219Z,19.08
2022-08-17T18:44:55.365Z,20.48
2022-08-17T18:47:24.457Z,22.13
2022-08-17T18:49:54.209Z,19.65
2022-08-17T18:52:26.685Z,19.73
2022-08-17T18:55:07.173Z,16.55
2022-08-17T18:57:36.326Z,16.92
2022-08-17T19:00:12.057Z,17.88
2022-08-17T19:02:50.497Z,20.90
2022-08-17T19:05:33.251Z,21.13
2022-08-17T19:08:17.679Z,20.52
2022-08-17T19:10:45.867Z,19.80
2022-08-17T19:13:24.501Z,19.52
2022-08-17T19:16:12.325Z,21.20
2022-08-17T19:18:45.452Z,20.40
2022-08-17T19:21:18.253Z,21.75
2022-08-17T19:23:54.068Z,22.10
2022-08-17T19:26:54.550Z,20.30
2022-08-17T19:29:16.823Z,18.33
2022-08-17T19:31:50.286Z,20.20
2022-08-17T19:34:33.446Z,19.27
2022-08-17T19:37:06.509Z,21.38
2022-08-17T19:39:40.664Z,22.38
2022-08-17T19:42:14.956Z,23.15
2022-08-17T19:44:58.953Z,20.30
2022-08-17T19:47:54.307Z,24.25
2022-08-17T19:50:30.349Z,21.75
2022-08-17T19:53:17.107Z,23.10
2022-08-17T19:55:52.753Z,24.10
2022-08-17T19:58:35.356Z,21.10
2022-08-17T20:01:04.729Z,21.85
2022-08-17T20:03:38.353Z,22.20
2022-08-17T20:06:13.024Z,25.77
2022-08-17T20:08:47.725Z,24.95
2022-08-17T20:11:20.788Z,20.03
2022-08-17T20:13:52.281Z,19.48
2022-08-17T20:16:19.839Z,21.33
2022-08-17T20:18:55.217Z,21.58
2022-08-17T20:21:27.092Z,18.73
2022-08-17T20:24:01.769Z,21.80
2022-08-17T20:26:51.263Z,23.08
2022-08-17T20:29:39.814Z,20.65
2022-08-17T20:32:32.161Z,20.88
2022-08-17T20:35:28.529Z,23.77
2022-08-17T20:38:08.788Z,22.43
2022-08-17T20:40:38.552Z,21.00
2022-08-17T20:43:45.481Z,25.63
2022-08-17T20:46:41.369Z,24.77
2022-08-17T20:49:22.976Z,23.77
2022-08-17T20:52:01.808Z,20.73
2022-08-17T20:54:50.323Z,21.25
2022-08-17T20:57:45.170Z,20.95
2022-08-17T21:00:13.384Z,20.55
2022-08-17T21:02:41.133Z,19.58
2022-08-17T21:05:30.264Z,21.30
2022-08-17T21:08:00.843Z,22.75
2022-08-17T21:10:37.330Z,21.73
2022-08-17T21:13:46.546Z,24.67
2022-08-17T21:16:44.039Z,22.13
2022-08-17T21:19:37.588Z,23.37
2022-08-17T21:22:22.569Z,25.67
2022-08-17T21:24:57.368Z,24.83
2022-08-17T21:27:38.569Z,25.98
2022-08-17T21:30:22.012Z,22.10
2022-08-17T21:33:18.588Z,21.83
2022-08-17T21:35:50.864Z,22.98
2022-08-17T21:38:20.002Z,24.58
2022-08-17T21:40:49.447Z,22.17
2022-08-17T21:43:34.253Z,26.98
2022-08-17T21:46:04.536Z,26.67
2022-08-17T21:48:40.125Z,23.98
2022-08-17T21:51:09.348Z,25.38
2022-08-17T21:53:47.448Z,27.80
2022-08-17T21:56:24.664Z,26.25
2022-08-17T21:58:58.434Z,26.37
2022-08-17T22:01:27.929Z,27.65
2022-08-17T22:03:58.578Z,26.80
2022-08-17T22:06:27.736Z,26.17
2022-08-17T22:09:14.776Z,25.85
2022-08-17T22:11:51.984Z,28.40
2022-08-17T22:14:21.890Z,29.50
2022-08-17T22:17:04.644Z,30.92
2022-08-17T22:19:31.945Z,33.65
2022-08-17T22:22:03.484Z,32.58
2022-08-17T22:24:30.292Z,30.87
2022-08-17T22:27:04.416Z,30.48
2022-08-17T22:29:59.873Z,32.35
2022-08-17T22:32:32.297Z,30.52
2022-08-17T22:35:19.912Z,31.08
2022-08-17T22:37:47.066Z,33.30
2022-08-17T22:40:25.048Z,30.73
2022-08-17T22:42:51.983Z,34.78
2022-08-17T22:45:20.058Z,38.67
2022-08-17T22:47:47.199Z,42.88
2022-08-17T22:50:21.496Z,33.90
2022-08-17T22:52:57.447Z,35.53
2022-08-17T22:55:25.642Z,35.20
2022-08-17T22:57:52.792Z,34.35
2022-08-17T23:00:36.448Z,34.13
2022-08-17T23:03:10.603Z,34.43
2022-08-17T23:05:38.810Z,35.58
2022-08-17T23:08:05.507Z,39.30
2022-08-17T23:10:32.172Z,42.72
2022-08-17T23:12:59.554Z,35.25
2022-08-17T23:15:28.117Z,39.00
2022-08-17T23:17:56.452Z,39.10
2022-08-17T23:20:23.410Z,37.90
2022-08-17T23:22:51.904Z,39.80
2022-08-17T23:25:25.695Z,40.58
2022-08-17T23:27:52.650Z,43.10
2022-08-17T23:30:19.552Z,40.45
2022-08-17T23:32:53.336Z,38.60
2022-08-17T23:35:40.114Z,41.10
2022-08-17T23:38:08.771Z,38.17
2022-08-17T23:40:37.613Z,38.53
2022-08-17T23:43:12.921Z,40.83
2022-08-17T23:45:52.713Z,41.53
2022-08-17T23:48:28.533Z,46.83
2022-08-17T23:51:12.958Z,45.33
2022-08-17T23:53:42.725Z,39.93
2022-08-17T23:56:10.908Z,41.83
2022-08-17T23:58:39.260Z,41.65
